createdAt,value
2018-11-22T12:16:42.754Z,16.17
2018-11-22T12:21:52.348Z,16.17
2018-11-22T12:27:01.717Z,17.37
2018-11-22T12:32:17.585Z,15.53
2018-11-22T12:37:35.099Z,17.67
2018-11-22T12:42:44.483Z,15.60
2018-11-22T12:47:54.177Z,17.43
2018-11-22T12:53:03.725Z,16.00
2018-11-22T12:58:13.241Z,16.20
2018-11-22T13:03:22.658Z,16.53
2018-11-22T13:08:32.233Z,15.53
2018-11-22T13:13:41.725Z,14.97
2018-11-22T13:18:51.910Z,17.17
2018-11-22T13:24:01.497Z,14.47
2018-11-22T13:29:11.216Z,16.77
2018-11-22T13:34:20.994Z,17.83
2018-11-22T13:39:30.609Z,18.03
2018-11-22T13:44:39.995Z,17.93
2018-11-22T13:49:49.313Z,16.83
2018-11-22T13:54:58.730Z,14.90
2018-11-22T14:00:13.347Z,17.50
2018-11-22T14:05:22.977Z,16.83
2018-11-22T14:10:32.474Z,16.63
2018-11-22T14:15:42.045Z,16.60
2018-11-22T14:20:52.282Z,14.80
2018-11-22T14:26:01.682Z,17.37
2018-11-22T14:31:11.140Z,17.47
2018-11-22T14:36:20.826Z,12.93
2018-11-22T14:41:30.212Z,15.93
2018-11-22T14:46:39.824Z,13.17
2018-11-22T14:51:50.721Z,17.63
2018-11-22T14:57:00.632Z,21.42
2018-11-22T15:02:10.201Z,17.60
2018-11-22T15:07:19.652Z,15.80
2018-11-22T15:12:30.278Z,16.83
2018-11-22T15:17:40.249Z,17.00
2018-11-22T15:22:51.057Z,12.77
2018-11-22T15:28:00.943Z,17.63
2018-11-22T15:33:10.465Z,11.57
2018-11-22T15:38:20.132Z,13.93
2018-11-22T15:43:29.905Z,11.20
2018-11-22T15:48:39.389Z,11.87
2018-11-22T15:53:48.956Z,11.00
2018-11-22T15:58:58.821Z,11.37
2018-11-22T16:04:08.375Z,11.13
2018-11-22T16:09:18.647Z,11.53
2018-11-22T16:14:28.313Z,11.23
2018-11-22T16:19:37.682Z,11.13
2018-11-22T16:24:47.374Z,11.57
2018-11-22T16:29:57.046Z,11.83
2018-11-22T16:35:08.332Z,12.33
2018-11-22T16:40:19.176Z,12.07
2018-11-22T16:45:31.919Z,12.90
2018-11-22T16:50:42.059Z,12.67
2018-11-22T16:55:51.804Z,12.33
2018-11-22T17:01:00.262Z,12.33
2018-11-22T17:06:09.842Z,14.10
2018-11-22T17:11:19.302Z,13.37
2018-11-22T17:16:28.881Z,16.97
2018-11-22T17:21:38.449Z,18.27
2018-11-22T17:26:47.800Z,18.17
2018-11-22T17:31:57.216Z,16.12
2018-11-22T17:37:06.610Z,17.97
2018-11-22T17:42:16.180Z,18.90
2018-11-22T17:47:25.838Z,17.10
2018-11-22T17:52:35.253Z,16.40
2018-11-22T17:57:44.809Z,17.37
2018-11-22T18:02:55.270Z,17.33
2018-11-22T18:08:05.082Z,14.53
2018-11-22T18:13:14.504Z,12.93
2018-11-22T18:24:36.769Z,13.60
2018-11-22T18:29:46.163Z,15.70
2018-11-22T18:34:55.797Z,13.77
2018-11-22T18:40:06.625Z,16.93
2018-11-22T18:45:20.204Z,20.23
2018-11-22T18:50:30.689Z,20.17
2018-11-22T18:55:40.090Z,21.43
2018-11-22T19:00:49.738Z,21.43
2018-11-22T19:05:59.261Z,20.83
2018-11-22T19:11:08.797Z,19.90
2018-11-22T19:16:18.160Z,15.17
2018-11-22T19:21:27.521Z,20.10
2018-11-22T19:26:31.334Z,21.30
2018-11-22T19:31:40.774Z,20.30
2018-11-22T19:36:50.262Z,16.63
2018-11-22T19:41:59.654Z,21.37
2018-11-22T19:47:06.997Z,17.50
2018-11-22T19:52:12.225Z,21.50
2018-11-22T19:57:21.654Z,20.97
2018-11-22T20:02:31.058Z,20.70
2018-11-22T20:07:41.197Z,18.03
2018-11-22T20:12:50.614Z,19.10
2018-11-22T20:18:01.022Z,19.63
2018-11-22T20:23:04.811Z,19.90
2018-11-22T20:28:14.237Z,19.67
2018-11-22T20:33:18.051Z,15.20
2018-11-22T20:38:21.831Z,14.30
2018-11-22T20:43:31.229Z,17.43
2018-11-22T20:48:40.782Z,17.90
2018-11-22T20:53:50.194Z,18.77
2018-11-22T20:58:59.769Z,15.83
2018-11-22T21:04:09.134Z,19.80
2018-11-22T21:09:17.294Z,19.83
2018-11-22T21:14:26.897Z,18.93
2018-11-22T21:19:36.430Z,16.00
2018-11-22T21:24:46.042Z,20.43
2018-11-22T21:29:55.800Z,16.17
2018-11-22T21:35:06.031Z,19.43
2018-11-22T21:40:10.341Z,17.13
2018-11-22T21:45:16.138Z,16.73
2018-11-22T21:50:21.287Z,13.30
2018-11-22T21:55:31.035Z,15.70
2018-11-22T22:00:41.692Z,19.47
2018-11-22T22:05:51.085Z,14.70
2018-11-22T22:11:00.472Z,17.63
2018-11-22T22:16:09.880Z,14.03
2018-11-22T22:21:19.237Z,15.70
2018-11-22T22:26:22.983Z,12.73
2018-11-22T22:31:26.792Z,11.33
2018-11-22T22:36:30.766Z,11.30
2018-11-22T22:41:34.851Z,11.43
2018-11-22T22:46:38.600Z,13.10
2018-11-22T22:51:42.373Z,17.93
2018-11-22T22:56:46.777Z,11.13
2018-11-22T23:01:50.527Z,18.60
2018-11-22T23:06:54.328Z,17.03
2018-11-22T23:11:58.126Z,15.30
2018-11-22T23:17:01.897Z,17.87
2018-11-22T23:22:05.672Z,15.90
2018-11-22T23:27:09.485Z,17.13
2018-11-22T23:32:13.282Z,15.87
2018-11-22T23:37:17.130Z,15.67
2018-11-22T23:42:20.928Z,16.57
2018-11-22T23:47:24.756Z,14.00
2018-11-22T23:52:28.638Z,15.20
2018-11-22T23:57:32.410Z,16.43
